Mercury, NV

5:45 AM PDT on August 20, 2014 (GMT -0700)
MesoWest Mercury NV US ARL SORD | Change Station
CLOSE
Current Station
Personal Weather Station
Location: Mercury, NV
Elevation: 3678 ft
Nearby Weather Stations

Elev 3678 ft 36.66 °N, 116.00 °W | Updated 30 minutes ago

Clear
Clear
68 °F
Feels Like 68 °F
N
4
Wind Variable Wind from NNE
Gusts 6.0 mph

Today
High -- | Low -- °F
--% Chance of Precip.
Yesterday
High -- | Low -- °F
Precip. -- in
6:05 AM 7:28 PM
Waning Crescent, 22% visible
Pressure 29.75 in
Visibility 10.0 miles
Clouds Clear
Dew Point 52 °F
Humidity 56%
Rainfall 0.00 in
Snow Depth Not available.
UV 0 out of 12
Pollen 5.70 out of 12
Ozone Good
PM2.5 Good
Flu Activity Not available.
METAR KDRA 201152Z AUTO 00000KT 10SM CLR 21/09 A2990 RMK AO2 SLP074 T02110094 10256 20206 51006

More Conditions Fewer Conditions

Pressure 29.75 in
Visibility 10.0 miles
Clouds Clear
Dew Point 52 °F
Humidity 56%
Rainfall 0.00 in
Snow Depth Not available.
UV 0 out of 12
Pollen 5.70 out of 12
Ozone Good
PM2.5 Good
Flu Activity Not available.
METAR KDRA 201152Z AUTO 00000KT 10SM CLR 21/09 A2990 RMK AO2 SLP074 T02110094 10256 20206 51006

More Conditions Fewer Conditions

10-Day Weather Forecast

Almanac

Astronomy

Aug. 20, 2014 Rise Set
Actual Time 6:05 AM PDT 7:28 PM PDT
Civil Twilight 5:38 AM PDT 7:55 PM PDT
Nautical Twilight 5:05 AM PDT 8:27 PM PDT
Astronomical Twilight 4:31 AM PDT 9:01 PM PDT
Moon 1:51 AM PDT 4:14 PM PDT
Length of Visible Light 14h 17m
Length of Day
13h 23m
Tomorrow will be 2m 8s shorter.
Waning Crescent, 22% of the Moon is Illuminated
Today
Waning Crescent
Aug 25
New
Sep 2
First Quarter
Sep 8
Full
Sep 15
Last Quarter

Today's Extremes

State Highs State Lows

Community

WunderPhotos

Upload Photos

1,745,618 photos uploaded!

Nearby

Air Quality

  Air Quality AQ Index Pollutant
Yesterday Good
OZONE
Yesterday Good
PM10
Current Good
PM2.5
Current Good
OZONE
Wednesday Good
PM10
Wednesday Good
OZONE
Thursday Good
PM10
Thursday Good
OZONE
Friday Good
PM10
Friday Good
OZONE
Saturday Good
PM10
Saturday Good
OZONE
Sunday Good
PM10
Sunday Good
OZONE

Snow Depth

Station Depth Elevation
Ward Mountain 0 in 9200 ft
Big Creek Summit 0 in 8700 ft
Diamond Peak 1 in 8000 ft
Green Mountain 0 in 8000 ft
Lewis Peak 0 in 7400 ft

Earthquake Activity

City Distance Mag. Time & Date
No recent earthquake activity has been reported nearby.
Minimum magnitude displayed is 2.5.

Coastal Water Temperatures

Place Temperature
No Stations Reporting

Nearby Weather Stations